Time;durP1;ratioP1;P1;durP2;ratioP2;P2;SDS_P1;SDS_P2;PMS_P1;PMS_P2;Temp;Humidity;BMP_temperature;BMP_pressure;BME280_temperature;BME280_humidity;BME280_pressure;Samples;Min_cycle;Max_cycle;Signal;HPM_P1;HPM_P2
2023/06/04 00:00:21;;;;;;;11.47;2.10;;;18.10;99.90;;;;;;5068231;28;20179;-73
2023/06/04 00:02:49;;;;;;;7.27;1.80;;;18.10;99.90;;;;;;5052903;28;20231;-75
2023/06/04 00:05:17;;;;;;;5.47;2.00;;;18.10;99.90;;;;;;5052781;28;20260;-76
2023/06/04 00:07:45;;;;;;;9.30;1.90;;;18.10;99.90;;;;;;5057225;28;20181;-75
2023/06/04 00:10:12;;;;;;;10.03;1.93;;;17.90;99.90;;;;;;5053671;28;20185;-76
2023/06/04 00:12:40;;;;;;;6.97;2.03;;;17.90;99.90;;;;;;5052996;28;20174;-76
2023/06/04 00:15:08;;;;;;;10.60;2.07;;;17.90;99.90;;;;;;5052645;28;20283;-76
2023/06/04 00:17:36;;;;;;;15.73;3.07;;;17.80;99.90;;;;;;5053341;28;20181;-76
2023/06/04 00:20:05;;;;;;;6.60;1.83;;;17.70;99.90;;;;;;5053350;28;20219;-76
2023/06/04 00:22:32;;;;;;;10.83;2.20;;;17.60;99.90;;;;;;5053062;28;20187;-76
2023/06/04 00:25:00;;;;;;;12.30;2.33;;;17.50;99.90;;;;;;5053481;28;20231;-75
2023/06/04 00:27:28;;;;;;;10.87;2.00;;;17.40;99.90;;;;;;5052937;28;20203;-76
2023/06/04 00:29:56;;;;;;;10.07;2.10;;;17.40;99.90;;;;;;5053385;28;20258;-76
2023/06/04 00:32:24;;;;;;;13.10;2.40;;;17.40;99.90;;;;;;5053182;28;20264;-75
2023/06/04 00:34:53;;;;;;;6.67;2.27;;;17.40;99.90;;;;;;5053260;28;20260;-76
2023/06/04 00:37:22;;;;;;;9.73;2.17;;;17.40;99.90;;;;;;5052984;28;20279;-74
2023/06/04 00:39:50;;;;;;;7.57;2.20;;;17.50;99.90;;;;;;5053444;28;20231;-76
2023/06/04 00:42:18;;;;;;;9.33;1.87;;;17.70;99.90;;;;;;5053075;28;20512;-76
2023/06/04 00:44:47;;;;;;;10.87;2.00;;;17.70;99.90;;;;;;5052809;28;20232;-74
2023/06/04 00:47:16;;;;;;;10.83;2.30;;;17.80;99.90;;;;;;5052574;28;20192;-76
2023/06/04 00:49:44;;;;;;;10.83;2.17;;;17.70;99.90;;;;;;5052415;28;20271;-74
2023/06/04 00:52:15;;;;;;;9.63;1.90;;;17.60;99.90;;;;;;5052818;28;20251;-75
2023/06/04 00:54:44;;;;;;;7.17;2.00;;;17.40;99.90;;;;;;5054913;28;20576;-73
2023/06/04 00:57:12;;;;;;;8.93;2.00;;;17.20;99.90;;;;;;5031318;28;20196;-73
2023/06/04 00:59:41;;;;;;;13.47;1.47;;;17.10;99.90;;;;;;5052456;28;20258;-74
2023/06/04 01:02:19;;;;;;;12.70;2.47;;;17.10;99.90;;;;;;5052630;28;20180;-76
2023/06/04 01:05:03;;;;;;;11.60;2.23;;;17.10;99.90;;;;;;5052619;28;20216;-75
2023/06/04 01:07:31;;;;;;;8.47;2.00;;;17.20;99.90;;;;;;5052391;28;20685;-76
2023/06/04 01:09:59;;;;;;;11.33;2.40;;;17.30;99.90;;;;;;5052234;28;20651;-71
2023/06/04 01:12:27;;;;;;;8.00;1.47;;;17.30;99.90;;;;;;5052428;28;20204;-71
2023/06/04 01:14:55;;;;;;;12.17;2.63;;;17.40;99.90;;;;;;5052768;28;20650;-71
2023/06/04 01:17:38;;;;;;;14.07;2.03;;;17.50;99.90;;;;;;5052787;28;20176;-71
2023/06/04 01:20:23;;;;;;;9.33;1.80;;;17.50;99.90;;;;;;5053070;28;20520;-70
2023/06/04 01:23:02;;;;;;;6.30;2.00;;;17.70;99.90;;;;;;5052184;28;20189;-70
2023/06/04 01:25:41;;;;;;;6.60;1.90;;;18.00;99.90;;;;;;5052020;28;20283;-70
2023/06/04 01:28:14;;;;;;;9.33;1.80;;;18.10;99.90;;;;;;5051639;28;20180;-69
2023/06/04 01:30:45;;;;;;;8.53;1.23;;;18.20;99.90;;;;;;5052182;28;20184;-70
2023/06/04 01:33:15;;;;;;;13.43;2.10;;;18.20;99.90;;;;;;5052204;28;20169;-69
2023/06/04 01:35:44;;;;;;;6.60;1.50;;;18.20;99.90;;;;;;5052550;28;20258;-70
2023/06/04 01:38:12;;;;;;;9.60;1.60;;;18.30;99.90;;;;;;5051673;28;20238;-70
2023/06/04 01:40:40;;;;;;;6.07;1.27;;;18.40;99.90;;;;;;5052261;28;20176;-69
2023/06/04 01:43:09;;;;;;;8.60;1.50;;;18.40;99.90;;;;;;5051914;28;20193;-69
2023/06/04 01:45:36;;;;;;;8.73;1.67;;;18.50;99.90;;;;;;5051975;28;20223;-70
2023/06/04 01:48:05;;;;;;;6.63;2.03;;;18.60;99.90;;;;;;5052138;28;20227;-72
2023/06/04 01:50:34;;;;;;;9.83;1.70;;;18.70;99.90;;;;;;5057775;28;20236;-70
2023/06/04 01:53:02;;;;;;;5.83;1.50;;;18.80;99.90;;;;;;5066555;28;20188;-71
2023/06/04 01:55:33;;;;;;;8.90;1.80;;;19.10;99.90;;;;;;5066249;28;20194;-71
2023/06/04 01:58:01;;;;;;;8.43;1.97;;;19.80;99.90;;;;;;5051473;28;20209;-71
2023/06/04 02:03:51;;;;;;;6.47;1.63;;;20.60;99.90;;;;;;5049412;28;20667;-70
2023/06/04 02:06:18;;;;;;;5.40;1.17;;;21.60;99.90;;;;;;5043435;28;20224;-71
2023/06/04 02:08:46;;;;;;;5.30;1.40;;;21.70;99.90;;;;;;5051344;28;20183;-71
2023/06/04 02:11:14;;;;;;;4.67;1.40;;;21.50;99.90;;;;;;5051526;28;20181;-70
2023/06/04 02:13:41;;;;;;;6.93;1.50;;;21.30;99.90;;;;;;5050901;28;20176;-70
2023/06/04 02:16:09;;;;;;;4.27;1.33;;;20.90;99.90;;;;;;5051510;28;20173;-70
2023/06/04 02:18:37;;;;;;;8.00;1.03;;;20.60;99.90;;;;;;5051225;28;20191;-70
2023/06/04 02:21:05;;;;;;;6.53;1.63;;;20.50;99.90;;;;;;5050700;28;20187;-70
2023/06/04 02:23:33;;;;;;;5.87;1.10;;;20.20;99.90;;;;;;5050710;28;20185;-70
2023/06/04 02:26:00;;;;;;;5.57;1.80;;;19.80;99.90;;;;;;5033376;28;20226;-70
2023/06/04 02:28:28;;;;;;;12.43;1.63;;;19.70;99.90;;;;;;5051317;28;20180;-70
2023/06/04 02:30:56;;;;;;;6.00;1.60;;;19.60;99.90;;;;;;5051343;28;20181;-70
2023/06/04 02:33:23;;;;;;;9.10;1.57;;;19.70;99.90;;;;;;5050842;28;20187;-70
2023/06/04 02:35:51;;;;;;;6.33;1.73;;;19.70;99.90;;;;;;5051182;28;20662;-70
2023/06/04 02:38:19;;;;;;;12.87;1.73;;;19.80;99.90;;;;;;5033361;28;20540;-70
2023/06/04 02:40:47;;;;;;;5.97;1.40;;;19.90;99.90;;;;;;5050604;28;20200;-71
2023/06/04 02:43:15;;;;;;;5.17;1.40;;;20.30;99.90;;;;;;5050828;28;20179;-70
2023/06/04 02:49:05;;;;;;;8.13;1.83;;;20.90;99.90;;;;;;5050566;28;20200;-71
2023/06/04 02:51:32;;;;;;;8.23;1.60;;;20.70;99.90;;;;;;5050712;28;20685;-70
2023/06/04 02:54:00;;;;;;;8.53;1.30;;;20.60;99.90;;;;;;5050984;28;20212;-70
2023/06/04 02:56:28;;;;;;;6.00;1.63;;;20.20;99.90;;;;;;5051052;28;20258;-70
2023/06/04 02:58:56;;;;;;;9.23;1.57;;;19.60;99.90;;;;;;5050726;28;20721;-70
2023/06/04 03:01:26;;;;;;;8.63;1.60;;;19.20;99.90;;;;;;5051064;28;20679;-70
2023/06/04 03:03:55;;;;;;;10.63;2.17;;;18.70;99.90;;;;;;5059192;28;20199;-70
2023/06/04 03:06:23;;;;;;;7.87;1.43;;;18.30;99.90;;;;;;5070701;28;20254;-70
2023/06/04 03:08:52;;;;;;;7.83;2.27;;;18.00;99.90;;;;;;5070768;28;20180;-71
2023/06/04 03:11:20;;;;;;;7.33;1.67;;;18.00;99.90;;;;;;5052814;28;20670;-70
2023/06/04 03:13:49;;;;;;;8.27;1.77;;;18.00;99.90;;;;;;5050741;28;20188;-70
2023/06/04 03:16:17;;;;;;;7.80;2.03;;;18.10;99.90;;;;;;5050706;28;20173;-70
2023/06/04 03:18:45;;;;;;;5.47;1.40;;;18.10;99.90;;;;;;5050222;28;20253;-70
2023/06/04 03:21:13;;;;;;;4.43;1.37;;;18.10;99.90;;;;;;5050329;28;20256;-70
2023/06/04 03:23:41;;;;;;;4.03;1.57;;;18.10;99.90;;;;;;5050913;28;20712;-70
2023/06/04 03:26:09;;;;;;;5.53;1.50;;;18.10;99.90;;;;;;5050587;28;20217;-70
2023/06/04 03:28:36;;;;;;;8.87;2.13;;;18.30;99.90;;;;;;5050862;28;20199;-70
2023/06/04 03:31:04;;;;;;;5.77;1.40;;;18.40;99.90;;;;;;5050113;28;20191;-70
2023/06/04 03:33:32;;;;;;;5.77;1.80;;;18.50;99.90;;;;;;5050691;28;20192;-71
2023/06/04 03:36:00;;;;;;;4.43;1.43;;;18.60;99.90;;;;;;5050897;28;20191;-71
2023/06/04 03:38:28;;;;;;;7.67;1.43;;;18.60;99.90;;;;;;5036337;28;20192;-71
2023/06/04 03:40:56;;;;;;;6.37;1.27;;;18.70;99.90;;;;;;5053667;28;20181;-71
2023/06/04 03:43:23;;;;;;;9.47;2.60;;;18.50;99.90;;;;;;5054243;28;20642;-71
2023/06/04 03:45:51;;;;;;;6.47;1.47;;;18.40;99.90;;;;;;5053358;28;20239;-69
2023/06/04 03:48:23;;;;;;;7.23;1.63;;;18.30;99.90;;;;;;5053846;28;20615;-69
2023/06/04 03:50:50;;;;;;;13.63;2.13;;;18.30;99.90;;;;;;5053865;28;20548;-69
2023/06/04 03:53:18;;;;;;;9.53;1.63;;;18.20;99.90;;;;;;5053924;28;20268;-69
2023/06/04 03:55:46;;;;;;;5.20;1.53;;;18.10;99.90;;;;;;5054059;28;20181;-70
2023/06/04 03:58:14;;;;;;;10.80;1.90;;;18.10;99.90;;;;;;5056588;28;20196;-70
2023/06/04 04:00:42;;;;;;;7.50;1.60;;;18.10;99.90;;;;;;5073717;28;20184;-70
2023/06/04 04:03:10;;;;;;;7.43;1.57;;;18.10;99.90;;;;;;5073881;28;20203;-70
2023/06/04 04:05:38;;;;;;;4.13;1.63;;;18.20;99.90;;;;;;5075252;28;20212;-70
2023/06/04 04:08:06;;;;;;;6.57;1.40;;;18.20;99.90;;;;;;5055395;28;20540;-70
2023/06/04 04:10:33;;;;;;;9.97;1.93;;;18.30;99.90;;;;;;5053662;28;20204;-70
2023/06/04 04:13:01;;;;;;;6.77;2.17;;;18.30;99.90;;;;;;5053474;28;20177;-70
2023/06/04 04:15:29;;;;;;;9.63;2.13;;;18.30;99.90;;;;;;5052982;28;20194;-69
2023/06/04 04:17:57;;;;;;;9.80;2.57;;;18.40;99.90;;;;;;5033684;28;20199;-68
2023/06/04 04:20:25;;;;;;;7.87;1.80;;;18.30;99.90;;;;;;5033701;28;20256;-68
2023/06/04 04:22:53;;;;;;;9.23;2.13;;;18.20;99.90;;;;;;5035589;28;20181;-68
2023/06/04 04:25:20;;;;;;;11.47;1.70;;;18.20;99.90;;;;;;5052778;28;20207;-69
2023/06/04 04:27:48;;;;;;;11.27;2.07;;;18.20;99.90;;;;;;5035276;28;20210;-69
2023/06/04 04:30:18;;;;;;;11.33;1.90;;;18.10;99.90;;;;;;5053472;28;20209;-71
2023/06/04 04:32:48;;;;;;;11.03;1.53;;;18.10;99.90;;;;;;5035722;28;20396;-70
2023/06/04 04:35:19;;;;;;;9.00;2.07;;;18.10;99.90;;;;;;5034372;28;20195;-70
2023/06/04 04:37:47;;;;;;;4.90;1.70;;;18.10;99.90;;;;;;5035323;28;20711;-70
2023/06/04 04:40:15;;;;;;;8.13;2.13;;;18.10;99.90;;;;;;5053275;28;20263;-69
2023/06/04 04:42:43;;;;;;;8.37;2.10;;;18.10;99.90;;;;;;5052794;28;20200;-69
2023/06/04 04:45:11;;;;;;;7.33;2.50;;;18.00;99.90;;;;;;5052937;28;20236;-69
2023/06/04 04:47:39;;;;;;;14.43;2.37;;;18.00;99.90;;;;;;5052532;28;20225;-69
2023/06/04 04:50:07;;;;;;;7.43;1.90;;;18.00;99.90;;;;;;5052482;28;20623;-69
2023/06/04 04:52:35;;;;;;;6.93;2.20;;;18.00;99.90;;;;;;5052405;28;20176;-69
2023/06/04 04:55:03;;;;;;;5.90;1.70;;;18.10;99.90;;;;;;5052881;28;20185;-70
2023/06/04 04:57:31;;;;;;;8.83;1.50;;;17.90;99.90;;;;;;5052488;28;20189;-69
2023/06/04 04:59:59;;;;;;;6.07;1.87;;;17.80;99.90;;;;;;5052777;28;20177;-69
2023/06/04 05:02:27;;;;;;;10.13;2.07;;;17.60;99.90;;;;;;5052822;28;20176;-69
2023/06/04 05:04:55;;;;;;;10.73;2.13;;;17.50;99.90;;;;;;5052622;28;20274;-70
2023/06/04 05:07:24;;;;;;;5.20;1.40;;;17.60;99.90;;;;;;5052371;28;20180;-70
2023/06/04 05:09:52;;;;;;;8.40;1.67;;;17.60;99.90;;;;;;5051525;28;20203;-71
2023/06/04 05:12:20;;;;;;;5.00;1.37;;;17.60;99.90;;;;;;5052251;28;20187;-70
2023/06/04 05:14:50;;;;;;;4.93;1.90;;;17.70;99.90;;;;;;5034439;28;20281;-70
2023/06/04 05:17:21;;;;;;;6.97;1.50;;;17.70;99.90;;;;;;5052454;28;20181;-70
2023/06/04 05:19:49;;;;;;;9.47;1.70;;;17.70;99.90;;;;;;5052271;28;20211;-70
2023/06/04 05:22:18;;;;;;;6.63;1.60;;;17.80;99.90;;;;;;5051920;28;20271;-70
2023/06/04 05:24:46;;;;;;;5.27;1.10;;;17.80;99.90;;;;;;5052124;28;20213;-70
2023/06/04 05:27:13;;;;;;;6.63;1.43;;;17.90;99.90;;;;;;5052315;28;20219;-70
2023/06/04 05:29:45;;;;;;;8.13;1.50;;;18.00;99.90;;;;;;5052104;28;20653;-70
2023/06/04 05:32:12;;;;;;;8.30;1.53;;;18.00;99.90;;;;;;5033162;28;20648;-70
2023/06/04 05:34:40;;;;;;;8.17;2.13;;;18.10;99.90;;;;;;5051966;28;20200;-70
2023/06/04 05:37:08;;;;;;;7.13;1.60;;;18.10;99.90;;;;;;5051818;28;20180;-70
2023/06/04 05:39:36;;;;;;;6.20;1.60;;;18.00;99.90;;;;;;5051172;28;20176;-70
2023/06/04 05:42:03;;;;;;;6.90;1.30;;;17.90;99.90;;;;;;5051874;28;20183;-70
2023/06/04 05:44:32;;;;;;;5.83;1.40;;;17.80;99.90;;;;;;5051629;28;20229;-70
2023/06/04 05:47:00;;;;;;;3.83;1.40;;;17.60;99.90;;;;;;5051466;28;20192;-69
2023/06/04 05:49:28;;;;;;;4.30;1.03;;;17.40;99.90;;;;;;5051331;28;20615;-70
2023/06/04 05:51:55;;;;;;;5.73;1.20;;;17.20;99.90;;;;;;5033910;28;20188;-70
2023/06/04 05:54:24;;;;;;;6.30;1.40;;;17.10;99.90;;;;;;5051728;28;20661;-70
2023/06/04 05:56:52;;;;;;;7.60;1.40;;;17.00;99.90;;;;;;5051437;28;20179;-69
2023/06/04 05:59:20;;;;;;;6.03;1.23;;;16.80;99.90;;;;;;5050514;28;20250;-69
2023/06/04 06:01:50;;;;;;;13.63;1.50;;;16.80;99.90;;;;;;5051608;28;20393;-69
2023/06/04 06:04:18;;;;;;;5.00;1.73;;;16.80;99.90;;;;;;5051800;28;20260;-69
2023/06/04 06:06:48;;;;;;;8.30;2.07;;;16.90;99.90;;;;;;5032715;28;20204;-70
2023/06/04 06:09:20;;;;;;;5.73;1.73;;;17.00;99.90;;;;;;5051166;28;20185;-69
2023/06/04 06:11:47;;;;;;;8.87;1.87;;;17.00;99.90;;;;;;5051457;28;20169;-69
2023/06/04 06:14:15;;;;;;;7.13;2.17;;;17.00;99.90;;;;;;5050834;28;20259;-69
2023/06/04 06:16:43;;;;;;;6.33;1.53;;;17.00;99.90;;;;;;5051048;28;20178;-70
2023/06/04 06:19:11;;;;;;;7.10;1.83;;;17.00;99.90;;;;;;5051429;28;20255;-70
2023/06/04 06:21:38;;;;;;;4.90;1.90;;;17.00;99.90;;;;;;5050670;28;20196;-69
2023/06/04 06:24:06;;;;;;;8.13;1.63;;;17.00;99.90;;;;;;5051113;28;20251;-70
2023/06/04 06:26:34;;;;;;;4.10;1.10;;;17.00;99.90;;;;;;5051114;28;20625;-71
2023/06/04 06:29:02;;;;;;;8.43;2.00;;;16.90;99.90;;;;;;5051195;28;20181;-70
2023/06/04 06:31:29;;;;;;;6.73;1.30;;;17.00;99.90;;;;;;5050523;28;20271;-71
2023/06/04 06:33:57;;;;;;;5.93;1.37;;;16.90;99.90;;;;;;5051309;28;20273;-70
2023/06/04 06:36:26;;;;;;;6.20;1.70;;;16.80;99.90;;;;;;5050708;28;20185;-70
2023/06/04 06:38:53;;;;;;;6.43;2.10;;;16.90;99.90;;;;;;5051061;28;20184;-70
2023/06/04 06:41:21;;;;;;;5.13;1.97;;;16.90;99.90;;;;;;5051078;28;20173;-70
2023/06/04 06:43:50;;;;;;;7.00;1.97;;;16.90;99.90;;;;;;5050981;28;20276;-71
2023/06/04 06:46:18;;;;;;;9.90;1.87;;;16.80;99.90;;;;;;5050416;28;20208;-70
2023/06/04 06:48:46;;;;;;;8.83;1.90;;;16.80;99.90;;;;;;5050941;28;20172;-73
2023/06/04 06:51:14;;;;;;;4.63;2.13;;;16.70;99.90;;;;;;5050893;28;20574;-70
2023/06/04 06:53:43;;;;;;;9.07;2.43;;;16.70;99.90;;;;;;5033033;28;20177;-70
2023/06/04 06:56:11;;;;;;;7.67;2.47;;;16.70;99.90;;;;;;5050373;28;20176;-70
2023/06/04 06:58:39;;;;;;;8.00;1.87;;;16.70;99.90;;;;;;5050977;28;20259;-70
2023/06/04 07:01:07;;;;;;;7.03;2.00;;;16.70;99.90;;;;;;5050746;28;20654;-70
2023/06/04 07:03:35;;;;;;;4.57;1.90;;;16.60;99.90;;;;;;5050850;28;20705;-70
2023/06/04 07:06:03;;;;;;;6.50;1.97;;;16.50;99.90;;;;;;5050692;28;20274;-70
2023/06/04 07:08:31;;;;;;;6.27;1.80;;;16.50;99.90;;;;;;5050782;28;20625;-69
2023/06/04 07:10:59;;;;;;;3.33;1.60;;;16.50;99.90;;;;;;5052898;28;20189;-69
2023/06/04 07:13:27;;;;;;;6.77;2.20;;;16.50;99.90;;;;;;5054693;28;20164;-69
2023/06/04 07:15:55;;;;;;;4.53;1.53;;;16.50;99.90;;;;;;5054898;28;20225;-69
2023/06/04 07:18:23;;;;;;;7.20;1.83;;;16.50;99.90;;;;;;5054359;28;20183;-69
2023/06/04 07:20:52;;;;;;;8.37;1.43;;;16.30;99.90;;;;;;5054708;28;20180;-69
2023/06/04 07:23:20;;;;;;;4.73;1.87;;;16.30;99.90;;;;;;5054613;28;20184;-69
2023/06/04 07:25:48;;;;;;;6.00;1.40;;;16.30;99.90;;;;;;5054487;28;20712;-69
2023/06/04 07:28:16;;;;;;;6.27;1.87;;;16.20;99.90;;;;;;5054954;28;20251;-70
2023/06/04 07:30:45;;;;;;;5.23;1.33;;;16.30;99.90;;;;;;5054730;28;20219;-69
2023/06/04 07:33:13;;;;;;;10.23;1.83;;;16.30;99.90;;;;;;5054413;28;20177;-69
2023/06/04 07:35:41;;;;;;;6.10;1.80;;;16.20;99.90;;;;;;5054675;28;20264;-70
2023/06/04 07:38:09;;;;;;;8.47;2.10;;;16.20;99.90;;;;;;5054645;28;20250;-70
2023/06/04 07:40:37;;;;;;;6.63;2.40;;;16.20;99.90;;;;;;5054637;28;20173;-69
2023/06/04 07:43:07;;;;;;;12.23;2.63;;;16.20;99.90;;;;;;5053990;28;20187;-70
2023/06/04 07:45:35;;;;;;;5.73;1.93;;;16.30;99.90;;;;;;5054232;28;20235;-70
2023/06/04 07:48:02;;;;;;;7.77;2.53;;;16.30;99.90;;;;;;5054307;28;20208;-69
2023/06/04 07:50:30;;;;;;;8.30;1.80;;;16.30;99.90;;;;;;5053777;28;20204;-70
2023/06/04 07:52:58;;;;;;;7.50;2.73;;;16.30;99.90;;;;;;5054357;28;20296;-70
2023/06/04 07:55:27;;;;;;;9.10;2.10;;;16.30;99.90;;;;;;5055534;28;20255;-70
2023/06/04 07:57:54;;;;;;;7.60;1.90;;;16.30;99.90;;;;;;5055336;28;20180;-70
2023/06/04 08:00:22;;;;;;;5.33;1.63;;;16.30;99.90;;;;;;5055360;28;20233;-70
2023/06/04 08:02:52;;;;;;;3.67;1.43;;;16.20;99.90;;;;;;5055183;28;20181;-69
2023/06/04 08:05:20;;;;;;;7.73;1.87;;;16.20;99.90;;;;;;5055343;28;20570;-71
2023/06/04 08:07:48;;;;;;;5.53;1.87;;;16.20;99.90;;;;;;5037298;28;20238;-70
2023/06/04 08:10:15;;;;;;;4.60;1.70;;;16.10;99.90;;;;;;5068521;28;20176;-70
2023/06/04 08:12:43;;;;;;;5.30;1.57;;;16.10;99.90;;;;;;5074982;28;20222;-70
2023/06/04 08:15:11;;;;;;;10.00;2.27;;;16.10;99.90;;;;;;5075149;28;20186;-70
2023/06/04 08:17:39;;;;;;;9.53;2.07;;;16.20;99.90;;;;;;5074809;28;20663;-69
2023/06/04 08:20:08;;;;;;;6.07;1.80;;;16.30;99.90;;;;;;5074991;28;20168;-70
2023/06/04 08:22:36;;;;;;;6.13;1.60;;;16.20;99.90;;;;;;5056202;28;20180;-69
2023/06/04 08:25:05;;;;;;;7.00;1.73;;;16.20;99.90;;;;;;5074853;28;20677;-69
2023/06/04 08:27:33;;;;;;;8.47;2.30;;;16.10;99.90;;;;;;5075055;28;20179;-70
2023/06/04 08:30:01;;;;;;;9.87;1.93;;;16.10;99.90;;;;;;5074642;28;20233;-69
2023/06/04 08:32:29;;;;;;;6.40;1.80;;;16.00;99.90;;;;;;5074681;28;20222;-70
2023/06/04 08:34:57;;;;;;;6.33;1.70;;;15.90;99.90;;;;;;5074748;28;20181;-70
2023/06/04 08:37:25;;;;;;;10.63;1.97;;;15.90;99.90;;;;;;5075315;28;20178;-70
2023/06/04 08:39:53;;;;;;;4.73;1.70;;;15.90;99.90;;;;;;5074790;28;20167;-71
2023/06/04 08:42:28;;;;;;;9.23;2.47;;;15.90;99.90;;;;;;5074735;28;20184;-70
2023/06/04 08:44:56;;;;;;;6.07;2.17;;;16.00;99.90;;;;;;5074200;28;20685;-70
2023/06/04 08:47:28;;;;;;;4.70;2.07;;;16.00;99.90;;;;;;5056521;28;20220;-70
2023/06/04 08:50:00;;;;;;;6.70;2.27;;;15.90;99.90;;;;;;5074328;28;20172;-71
2023/06/04 08:52:28;;;;;;;7.80;2.17;;;16.00;99.90;;;;;;5074213;28;20180;-70
2023/06/04 08:54:57;;;;;;;7.67;2.20;;;16.10;99.90;;;;;;5074259;28;20234;-70
2023/06/04 08:57:25;;;;;;;9.70;2.50;;;16.10;99.90;;;;;;5074233;28;20270;-71
2023/06/04 08:59:53;;;;;;;7.97;2.07;;;16.10;99.90;;;;;;5074157;28;20622;-69
2023/06/04 09:02:21;;;;;;;7.97;2.27;;;16.00;99.90;;;;;;5074037;28;20172;-69
2023/06/04 09:04:49;;;;;;;7.13;2.17;;;15.90;99.90;;;;;;5074071;28;20699;-70
2023/06/04 09:07:18;;;;;;;6.30;1.90;;;15.90;99.90;;;;;;5074061;28;20266;-70
2023/06/04 09:09:48;;;;;;;15.00;2.33;;;15.90;99.90;;;;;;5074012;28;20176;-70
2023/06/04 09:12:23;;;;;;;5.77;1.80;;;15.90;99.90;;;;;;5073960;28;20179;-70
2023/06/04 09:14:51;;;;;;;7.87;2.23;;;15.80;99.90;;;;;;5074291;28;20167;-69
2023/06/04 09:17:25;;;;;;;6.13;2.10;;;15.80;99.90;;;;;;5073810;28;20175;-70
2023/06/04 09:19:53;;;;;;;8.00;2.13;;;15.80;99.90;;;;;;5073824;28;20299;-70
2023/06/04 09:22:31;;;;;;;7.23;2.17;;;15.70;99.90;;;;;;5073735;28;20535;-70
2023/06/04 09:24:59;;;;;;;8.67;2.03;;;15.70;99.90;;;;;;5073520;28;20283;-70
2023/06/04 09:27:28;;;;;;;5.50;2.00;;;15.70;99.90;;;;;;5073571;28;20172;-70
2023/06/04 09:30:00;;;;;;;5.13;2.33;;;15.70;99.90;;;;;;5073512;28;20168;-70
2023/06/04 09:32:32;;;;;;;7.07;2.30;;;15.70;99.90;;;;;;5073698;28;20176;-70
2023/06/04 09:35:19;;;;;;;9.17;2.50;;;15.70;99.90;;;;;;5072582;28;20210;-70
2023/06/04 09:37:59;;;;;;;8.43;2.63;;;15.70;99.90;;;;;;5073618;28;20172;-70
2023/06/04 09:40:37;;;;;;;6.00;2.33;;;15.60;99.90;;;;;;5073268;28;20181;-69
2023/06/04 09:43:05;;;;;;;9.23;2.30;;;15.60;99.90;;;;;;5073500;28;20186;-69
2023/06/04 09:45:35;;;;;;;7.70;2.57;;;15.60;99.90;;;;;;5073212;28;20224;-69
2023/06/04 09:48:04;;;;;;;14.73;3.20;;;15.60;99.90;;;;;;5060110;28;20191;-69
2023/06/04 09:50:38;;;;;;;11.77;3.17;;;15.60;99.90;;;;;;5051418;28;20272;-69
2023/06/04 09:53:25;;;;;;;8.00;2.10;;;15.60;99.90;;;;;;5052779;28;20626;-69
2023/06/04 09:56:00;;;;;;;7.40;2.57;;;15.50;99.90;;;;;;5052203;28;20188;-69
2023/06/04 09:58:30;;;;;;;10.80;2.53;;;15.50;99.90;;;;;;5052450;28;20180;-70
2023/06/04 10:01:03;;;;;;;9.67;2.57;;;15.40;99.90;;;;;;5052633;28;20204;-70
2023/06/04 10:03:36;;;;;;;6.87;2.80;;;15.40;99.90;;;;;;5052747;28;20176;-70
2023/06/04 10:06:05;;;;;;;11.57;3.07;;;15.40;99.90;;;;;;5052388;28;20215;-70
2023/06/04 10:08:34;;;;;;;10.97;2.90;;;15.40;99.90;;;;;;5052301;28;20626;-70
2023/06/04 10:11:03;;;;;;;9.73;3.33;;;15.30;99.90;;;;;;5052377;28;20208;-70
2023/06/04 10:13:43;;;;;;;9.83;2.90;;;15.30;99.90;;;;;;5067946;28;20199;-70
2023/06/04 10:16:13;;;;;;;9.23;2.93;;;15.20;99.90;;;;;;5069669;28;20241;-71
2023/06/04 10:18:41;;;;;;;18.27;3.57;;;15.20;99.90;;;;;;5072413;28;20172;-71
2023/06/04 10:21:10;;;;;;;8.93;2.57;;;15.10;99.90;;;;;;5071939;28;20195;-70
2023/06/04 10:23:38;;;;;;;11.50;2.83;;;15.10;99.90;;;;;;5071595;28;20184;-71
2023/06/04 10:26:06;;;;;;;11.20;2.97;;;15.10;99.90;;;;;;5054168;28;20272;-71
2023/06/04 10:28:35;;;;;;;7.17;2.60;;;15.00;99.90;;;;;;5072192;28;20168;-70
2023/06/04 10:31:02;;;;;;;13.20;3.10;;;14.90;99.90;;;;;;5072211;28;20170;-71
2023/06/04 10:33:29;;;;;;;13.93;3.00;;;14.70;99.90;;;;;;5071514;28;20581;-71
2023/06/04 10:35:57;;;;;;;7.83;2.87;;;14.60;99.90;;;;;;5072281;28;20188;-70
2023/06/04 10:38:25;;;;;;;14.53;3.33;;;14.50;99.90;;;;;;5072471;28;20233;-70
2023/06/04 10:40:53;;;;;;;7.87;2.63;;;14.40;99.90;;;;;;5071845;28;20190;-69
2023/06/04 10:43:20;;;;;;;8.07;2.57;;;14.40;99.90;;;;;;5071442;28;20550;-70
2023/06/04 10:45:48;;;;;;;9.57;2.40;;;14.40;99.90;;;;;;5073733;28;20239;-70
2023/06/04 10:48:15;;;;;;;7.73;2.67;;;14.30;99.90;;;;;;5076253;28;20199;-70
2023/06/04 10:50:53;;;;;;;4.60;2.67;;;14.20;99.90;;;;;;5076298;28;20664;-69
2023/06/04 10:53:21;;;;;;;11.90;2.73;;;14.20;99.90;;;;;;5076083;28;20213;-70
2023/06/04 10:55:50;;;;;;;10.53;2.70;;;14.20;99.90;;;;;;5076329;28;20176;-70
2023/06/04 10:58:17;;;;;;;9.60;2.67;;;14.20;99.90;;;;;;5076100;28;20168;-70
2023/06/04 11:00:48;;;;;;;8.20;2.20;;;14.20;99.90;;;;;;5075908;28;20183;-70
2023/06/04 11:03:17;;;;;;;10.83;2.80;;;14.20;99.90;;;;;;5075705;28;20629;-70
2023/06/04 11:05:46;;;;;;;8.47;2.60;;;14.30;99.90;;;;;;5043267;28;20258;-69
2023/06/04 11:08:15;;;;;;;9.27;2.70;;;14.30;99.90;;;;;;5061372;28;20172;-70
2023/06/04 11:10:46;;;;;;;7.53;2.60;;;14.30;99.90;;;;;;5075835;28;20179;-69
2023/06/04 11:13:13;;;;;;;10.67;3.50;;;14.30;99.90;;;;;;5075555;28;20241;-69
2023/06/04 11:15:46;;;;;;;10.63;3.50;;;14.30;99.90;;;;;;5057716;28;20509;-70
2023/06/04 11:18:18;;;;;;;9.50;3.10;;;14.30;99.90;;;;;;5075697;28;20180;-70
2023/06/04 11:21:01;;;;;;;11.53;3.27;;;14.30;99.90;;;;;;5075666;28;20172;-71
2023/06/04 11:23:31;;;;;;;10.93;3.23;;;14.20;99.90;;;;;;5075388;28;20527;-69
2023/06/04 11:25:59;;;;;;;7.87;3.23;;;14.20;99.90;;;;;;5075592;28;20208;-71
2023/06/04 11:28:27;;;;;;;9.83;3.17;;;14.20;99.90;;;;;;5075434;28;20906;-70
2023/06/04 11:31:08;;;;;;;12.03;3.47;;;14.10;99.90;;;;;;5056979;28;20188;-71
2023/06/04 11:33:46;;;;;;;9.17;3.47;;;14.10;99.90;;;;;;5057529;28;20206;-70
2023/06/04 11:36:30;;;;;;;11.23;3.33;;;14.10;99.90;;;;;;5075410;28;20168;-69
2023/06/04 11:39:03;;;;;;;13.43;3.60;;;14.00;99.90;;;;;;5056819;28;20194;-70
2023/06/04 11:41:35;;;;;;;16.77;4.80;;;14.00;99.90;;;;;;5075436;28;20179;-70
2023/06/04 11:44:05;;;;;;;10.67;4.90;;;14.00;99.90;;;;;;5056963;28;20180;-71
2023/06/04 11:46:40;;;;;;;16.00;4.67;;;14.00;99.90;;;;;;5074930;28;20290;-71
2023/06/04 11:49:07;;;;;;;10.17;4.00;;;13.90;99.90;;;;;;5074948;28;20171;-71
2023/06/04 11:51:35;;;;;;;12.10;4.20;;;13.90;99.90;;;;;;5074826;28;20230;-70
2023/06/04 11:54:03;;;;;;;14.77;4.00;;;13.90;99.90;;;;;;5075038;28;20172;-71
2023/06/04 11:56:31;;;;;;;13.60;3.80;;;13.90;99.90;;;;;;5073748;28;20186;-70
2023/06/04 11:58:59;;;;;;;10.60;5.23;;;14.00;99.90;;;;;;5075113;28;20179;-70
2023/06/04 12:01:30;;;;;;;17.73;5.90;;;14.00;99.90;;;;;;5056742;28;20266;-70
2023/06/04 12:03:57;;;;;;;13.07;4.80;;;14.00;99.90;;;;;;5074458;28;20577;-70
2023/06/04 12:06:25;;;;;;;12.17;4.40;;;14.00;99.90;;;;;;5074596;28;20207;-70
2023/06/04 12:08:54;;;;;;;15.60;5.43;;;14.00;99.90;;;;;;5074808;28;20268;-70
2023/06/04 12:11:31;;;;;;;11.30;4.37;;;14.10;99.90;;;;;;5055658;28;20661;-69
2023/06/04 12:14:07;;;;;;;12.37;4.47;;;14.10;99.90;;;;;;5074769;28;20172;-69
2023/06/04 12:16:35;;;;;;;13.87;4.17;;;14.10;99.90;;;;;;5074326;28;20536;-69
2023/06/04 12:19:23;;;;;;;11.20;4.23;;;14.10;99.90;;;;;;5074473;28;20266;-71
2023/06/04 12:22:26;;;;;;;13.50;4.03;;;14.10;99.90;;;;;;5074403;28;20184;-70
2023/06/04 12:25:00;;;;;;;9.67;3.97;;;14.10;99.90;;;;;;5032169;28;20292;-71
2023/06/04 12:27:28;;;;;;;12.13;3.63;;;14.10;99.90;;;;;;5056009;28;20191;-70
2023/06/04 12:30:04;;;;;;;6.03;3.43;;;14.20;99.90;;;;;;5074136;28;20638;-70
2023/06/04 12:32:37;;;;;;;11.20;3.60;;;14.20;99.90;;;;;;5073963;28;20179;-71
2023/06/04 12:35:08;;;;;;;8.33;3.60;;;14.20;99.90;;;;;;5073509;28;20184;-71
2023/06/04 12:37:36;;;;;;;10.10;4.27;;;14.20;99.90;;;;;;5069169;28;20176;-70
2023/06/04 12:40:06;;;;;;;7.23;3.53;;;14.20;99.90;;;;;;5074246;28;20637;-70
2023/06/04 12:42:36;;;;;;;8.50;3.43;;;14.20;99.90;;;;;;5074006;28;20175;-71
2023/06/04 12:45:05;;;;;;;8.57;3.43;;;14.20;99.90;;;;;;5073663;28;20236;-71
2023/06/04 12:47:33;;;;;;;10.47;3.77;;;14.20;99.90;;;;;;5073414;28;20180;-70
2023/06/04 12:50:00;;;;;;;11.90;3.80;;;14.30;99.90;;;;;;5073974;28;20645;-70
2023/06/04 12:52:27;;;;;;;9.60;3.07;;;14.20;99.90;;;;;;5073939;28;20266;-70
2023/06/04 12:54:55;;;;;;;6.63;3.03;;;14.20;99.90;;;;;;5074028;28;20203;-69
2023/06/04 12:57:23;;;;;;;10.97;3.20;;;14.20;99.90;;;;;;5055514;28;20270;-69
2023/06/04 12:59:51;;;;;;;9.50;3.60;;;14.20;99.90;;;;;;5038925;28;20176;-70